createdAt,value
2022-12-23T00:01:31.504Z,99247.78
2022-12-23T00:04:00.842Z,99252.06
2022-12-23T00:06:30.820Z,99255.88
2022-12-23T00:08:59.598Z,99251.38
2022-12-23T00:11:29.425Z,99262.72
2022-12-23T00:14:21.243Z,99246.91
2022-12-23T00:16:52.018Z,99251.50
2022-12-23T00:19:20.743Z,99253.16
2022-12-23T00:21:50.919Z,99256.78
2022-12-23T00:24:19.439Z,99238.28
2022-12-23T00:26:48.025Z,99254.31
2022-12-23T00:29:16.869Z,99244.44
2022-12-23T00:31:45.298Z,99243.81
2022-12-23T00:34:14.324Z,99247.56
2022-12-23T00:36:42.850Z,99249.72
2022-12-23T00:39:31.869Z,99246.53
2022-12-23T00:42:17.764Z,99249.44
2022-12-23T00:44:46.249Z,99250.06
2022-12-23T00:47:36.343Z,99257.47
2022-12-23T00:50:03.855Z,99255.13
2022-12-23T00:52:32.234Z,99250.16
2022-12-23T00:55:01.988Z,99243.38
2022-12-23T00:57:30.353Z,99255.25
2022-12-23T00:59:58.667Z,99246.00
2022-12-23T01:02:44.676Z,99244.53
2022-12-23T01:05:36.132Z,99241.88
2022-12-23T01:08:04.844Z,99238.41
2022-12-23T01:10:36.041Z,99231.34
2022-12-23T01:13:04.452Z,99235.78
2022-12-23T01:15:33.453Z,99231.78
2022-12-23T01:18:01.936Z,99229.16
2022-12-23T01:20:30.338Z,99230.00
2022-12-23T01:22:58.662Z,99226.53
2022-12-23T01:25:27.041Z,99217.28
2022-12-23T01:27:56.806Z,99208.09
2022-12-23T01:30:25.402Z,99206.59
2022-12-23T01:32:53.780Z,99210.03
2022-12-23T01:35:22.126Z,99204.94
2022-12-23T01:37:50.482Z,99211.34
2022-12-23T01:40:18.855Z,99200.44
2022-12-23T01:42:47.576Z,99205.72
2022-12-23T01:45:20.926Z,99202.72
2022-12-23T01:47:53.368Z,99197.75
2022-12-23T01:50:27.025Z,99185.66
2022-12-23T01:53:07.214Z,99186.97
2022-12-23T01:55:48.194Z,99189.06
2022-12-23T01:58:19.625Z,99179.63
2022-12-23T02:01:06.914Z,99181.31
2022-12-23T02:03:44.624Z,99194.09
2022-12-23T02:06:35.636Z,99203.88
2022-12-23T02:09:19.215Z,99197.75
2022-12-23T02:12:33.094Z,99192.41
2022-12-23T02:15:31.374Z,99189.03
2022-12-23T02:18:14.726Z,99180.91
2022-12-23T02:21:08.339Z,99182.34
2022-12-23T02:24:14.011Z,99183.00
2022-12-23T02:27:04.276Z,99174.91
2022-12-23T02:30:07.780Z,99173.84
2022-12-23T02:32:54.911Z,99168.72
2022-12-23T02:35:30.641Z,99173.72
2022-12-23T02:38:05.926Z,99174.00
2022-12-23T02:40:40.772Z,99167.78
2022-12-23T02:43:18.842Z,99163.50
2022-12-23T02:45:51.672Z,99163.78
2022-12-23T02:48:30.636Z,99149.66
2022-12-23T02:51:00.273Z,99153.94
2022-12-23T02:53:33.663Z,99153.28
2022-12-23T02:56:03.653Z,99154.94
2022-12-23T02:58:35.349Z,99147.34
2022-12-23T03:01:04.524Z,99140.81
2022-12-23T03:03:34.535Z,99154.94
2022-12-23T03:06:05.763Z,99157.19
2022-12-23T03:08:42.284Z,99151.91
2022-12-23T03:11:13.683Z,99149.97
2022-12-23T03:14:02.948Z,99151.91
2022-12-23T03:16:41.948Z,99157.19
2022-12-23T03:19:22.204Z,99162.72
2022-12-23T03:21:58.627Z,99171.97
2022-12-23T03:24:36.116Z,99166.88
2022-12-23T03:27:09.615Z,99172.94
2022-12-23T03:29:43.167Z,99161.06
2022-12-23T03:32:14.448Z,99170.19
2022-12-23T03:34:48.450Z,99168.38
2022-12-23T03:37:20.823Z,99159.50
2022-12-23T03:39:56.637Z,99163.41
2022-12-23T03:42:30.656Z,99161.25
2022-12-23T03:45:36.981Z,99163.03
2022-12-23T03:47:55.055Z,99163.31
2022-12-23T03:50:26.793Z,99161.81
2022-12-23T03:53:00.564Z,99159.50
2022-12-23T03:55:34.216Z,99163.53
2022-12-23T03:58:09.906Z,99158.56
2022-12-23T04:00:46.086Z,99155.81
2022-12-23T04:03:22.217Z,99152.31
2022-12-23T04:05:58.945Z,99150.53
2022-12-23T04:08:32.330Z,99153.97
2022-12-23T04:11:02.434Z,99149.56
2022-12-23T04:13:32.327Z,99137.81
2022-12-23T04:16:01.221Z,99147.06
2022-12-23T04:18:30.546Z,99143.75
2022-12-23T04:21:00.503Z,99148.72
2022-12-23T04:23:28.850Z,99140.84
2022-12-23T04:25:57.205Z,99145.28
2022-12-23T04:28:25.715Z,99139.88
2022-12-23T04:30:54.073Z,99144.81
2022-12-23T04:33:22.458Z,99136.81
2022-12-23T04:35:50.830Z,99101.31
2022-12-23T04:38:20.710Z,99132.75
2022-12-23T04:40:49.117Z,99124.88
2022-12-23T04:43:17.575Z,99125.84
2022-12-23T04:45:45.902Z,99119.47
2022-12-23T04:48:14.292Z,99122.91
2022-12-23T04:50:42.736Z,99116.69
2022-12-23T04:53:11.114Z,99110.44
2022-12-23T04:55:40.932Z,99110.81
2022-12-23T04:58:09.338Z,99119.56
2022-12-23T05:00:40.081Z,99111.66
2022-12-23T05:03:08.804Z,99106.41
2022-12-23T05:05:37.581Z,99099.63
2022-12-23T05:08:07.625Z,99112.34
2022-12-23T05:10:35.967Z,99105.94
2022-12-23T05:13:05.703Z,99093.47
2022-12-23T05:15:34.357Z,99089.19
2022-12-23T05:18:02.685Z,99092.50
2022-12-23T05:20:31.173Z,99093.19
2022-12-23T05:22:59.508Z,99093.19
2022-12-23T05:25:27.907Z,99084.47
2022-12-23T05:27:56.226Z,99087.91
2022-12-23T05:30:26.007Z,99088.59
2022-12-23T05:32:55.345Z,99080.31
2022-12-23T05:35:24.415Z,99087.09
2022-12-23T05:37:53.960Z,99092.38
2022-12-23T05:40:26.122Z,99094.03
2022-12-23T05:42:56.763Z,99092.66
2022-12-23T05:45:26.759Z,99089.50
2022-12-23T05:47:55.109Z,99091.81
2022-12-23T05:50:23.655Z,99091.81
2022-12-23T05:52:52.045Z,99093.78
2022-12-23T05:55:20.417Z,99089.13
2022-12-23T05:57:48.931Z,99093.25
2022-12-23T06:00:17.887Z,99099.19
2022-12-23T06:02:53.459Z,99098.91
2022-12-23T06:05:23.066Z,99083.25
2022-12-23T06:07:52.016Z,99090.72
2022-12-23T06:10:20.510Z,99087.47
2022-12-23T06:12:48.967Z,99089.56
2022-12-23T06:15:17.372Z,99098.97
2022-12-23T06:17:45.708Z,99105.44
2022-12-23T06:20:20.402Z,99104.47
2022-12-23T06:22:49.532Z,99108.59
2022-12-23T06:25:18.294Z,99107.78
2022-12-23T06:27:47.038Z,99111.91
2022-12-23T06:30:15.805Z,99103.03
2022-12-23T06:32:44.264Z,99096.97
2022-12-23T06:35:12.899Z,99100.09
2022-12-23T06:37:42.675Z,99104.38
2022-12-23T06:40:12.239Z,99097.16
2022-12-23T06:42:40.637Z,99092.75
2022-12-23T06:45:10.457Z,99098.00
2022-12-23T06:47:38.924Z,99099.66
2022-12-23T06:50:08.858Z,99100.34
2022-12-23T06:52:37.326Z,99105.44
2022-12-23T06:55:07.909Z,99102.50
2022-12-23T06:57:36.307Z,99097.72
2022-12-23T07:00:05.411Z,99102.38
2022-12-23T07:02:33.880Z,99105.38
2022-12-23T07:05:02.359Z,99098.28
2022-12-23T07:07:32.525Z,99100.59
2022-12-23T07:10:00.917Z,99097.16
2022-12-23T07:12:30.749Z,99097.00
2022-12-23T07:14:59.090Z,99101.44
2022-12-23T07:17:27.474Z,99110.69
2022-12-23T07:19:55.868Z,99104.44
2022-12-23T07:22:24.470Z,99102.50
2022-12-23T07:24:52.874Z,99104.97
2022-12-23T07:27:21.237Z,99109.09
2022-12-23T07:29:51.038Z,99108.94
2022-12-23T07:32:19.401Z,99106.84
2022-12-23T07:34:47.763Z,99103.22
2022-12-23T07:37:16.168Z,99100.28
2022-12-23T07:39:44.585Z,99090.56
2022-12-23T07:45:03.351Z,99103.47
2022-12-23T07:47:32.075Z,99092.13
2022-12-23T07:50:00.425Z,99093.78
2022-12-23T07:52:30.146Z,99098.56
2022-12-23T07:55:05.654Z,99094.16
2022-12-23T07:57:37.990Z,99093.84
2022-12-23T08:00:10.978Z,99096.31
2022-12-23T08:02:39.900Z,99096.97
2022-12-23T08:05:09.887Z,99098.47
2022-12-23T08:07:38.893Z,99096.53
2022-12-23T08:10:08.794Z,99096.22
2022-12-23T08:12:37.310Z,99093.28
2022-12-23T08:15:08.516Z,99097.56
2022-12-23T08:17:37.013Z,99097.91
2022-12-23T08:20:05.914Z,99099.25
2022-12-23T08:22:34.337Z,99106.03
2022-12-23T08:25:02.738Z,99090.06
2022-12-23T08:27:31.206Z,99090.72
2022-12-23T08:29:59.663Z,99091.38
2022-12-23T08:32:30.039Z,99087.78
2022-12-23T08:34:58.863Z,99087.47
2022-12-23T08:37:27.728Z,99087.31
2022-12-23T08:39:56.202Z,99084.19
2022-12-23T08:42:24.758Z,99071.03
2022-12-23T08:44:53.338Z,99069.91
2022-12-23T08:47:21.760Z,99067.09
2022-12-23T08:49:51.819Z,99070.56
2022-12-23T08:52:20.306Z,99071.06
2022-12-23T08:54:48.899Z,99068.28
2022-12-23T08:57:17.609Z,99072.25
2022-12-23T08:59:47.249Z,99067.13
2022-12-23T09:02:15.838Z,99062.84
2022-12-23T09:04:44.600Z,99059.22
2022-12-23T09:07:14.423Z,99068.69
2022-12-23T09:09:42.831Z,99064.88
2022-12-23T09:12:11.287Z,99068.19
2022-12-23T09:14:40.186Z,99068.84
2022-12-23T09:17:08.597Z,99073.97
2022-12-23T09:19:36.992Z,99072.00
2022-12-23T09:22:05.672Z,99069.84
2022-12-23T09:24:35.644Z,99061.94
2022-12-23T09:27:04.465Z,99070.88
2022-12-23T09:29:33.376Z,99066.25
2022-12-23T09:32:01.804Z,99059.00
2022-12-23T09:34:30.617Z,99057.69
2022-12-23T09:36:59.443Z,99062.66
2022-12-23T09:39:27.949Z,99058.88
2022-12-23T09:42:08.095Z,99067.78
2022-12-23T09:45:00.912Z,99055.59
2022-12-23T09:47:31.636Z,99061.72
2022-12-23T09:50:02.882Z,99064.03
2022-12-23T09:52:40.365Z,99061.88
2022-12-23T09:55:12.751Z,99069.00
2022-12-23T09:57:51.871Z,99075.25
2022-12-23T10:00:20.948Z,99067.34
2022-12-23T10:03:06.361Z,99070.97
2022-12-23T10:05:48.760Z,99075.41
2022-12-23T10:08:23.063Z,99074.41
2022-12-23T10:10:55.680Z,99071.78
2022-12-23T10:13:29.970Z,99059.56
2022-12-23T10:16:03.636Z,99059.56
2022-12-23T10:18:43.856Z,99066.16
2022-12-23T10:21:19.209Z,99073.94
2022-12-23T10:23:52.725Z,99064.19
2022-12-23T10:26:25.876Z,99071.31
2022-12-23T10:29:03.867Z,99063.06
2022-12-23T10:31:44.281Z,99061.09
2022-12-23T10:34:21.615Z,99070.66
2022-12-23T10:36:59.755Z,99067.81
2022-12-23T10:39:38.003Z,99067.50
2022-12-23T10:42:16.646Z,99061.22
2022-12-23T10:45:18.699Z,99071.13
2022-12-23T10:47:57.327Z,99068.50
2022-12-23T10:50:51.318Z,99070.00
2022-12-23T10:53:32.365Z,99072.97
2022-12-23T10:56:01.759Z,99065.72
2022-12-23T10:58:31.270Z,99076.25
2022-12-23T11:01:13.890Z,99075.94
2022-12-23T11:03:54.280Z,99068.69
2022-12-23T11:06:24.170Z,99079.56
2022-12-23T11:08:52.858Z,99063.88
2022-12-23T11:11:21.427Z,99066.03
2022-12-23T11:13:51.249Z,99065.19
2022-12-23T11:16:25.813Z,99068.34
2022-12-23T11:19:00.675Z,99069.00
2022-12-23T11:21:31.195Z,99068.00
2022-12-23T11:24:19.484Z,99071.47
2022-12-23T11:26:50.938Z,99070.31
2022-12-23T11:29:24.475Z,99076.25
2022-12-23T11:31:54.908Z,99073.44
2022-12-23T11:34:25.518Z,99067.00
2022-12-23T11:37:00.286Z,99071.31
2022-12-23T11:39:36.454Z,99063.69
2022-12-23T11:42:13.367Z,99073.59
2022-12-23T11:44:45.081Z,99068.50
2022-12-23T11:47:29.487Z,99070.81
2022-12-23T11:49:59.452Z,99067.19
2022-12-23T11:52:29.267Z,99059.06
2022-12-23T11:54:59.470Z,99058.25
2022-12-23T11:57:39.799Z,99062.88
2022-12-23T12:00:18.361Z,99047.16
2022-12-23T12:02:50.485Z,99063.34
2022-12-23T12:05:23.288Z,99065.81
2022-12-23T12:07:53.395Z,99060.22
2022-12-23T12:10:26.998Z,99067.78
2022-12-23T12:12:58.461Z,99074.53
2022-12-23T12:15:33.855Z,99072.41
2022-12-23T12:18:10.306Z,99069.25
2022-12-23T12:20:43.199Z,99070.22
2022-12-23T12:23:16.609Z,99071.06
2022-12-23T12:25:50.772Z,99076.16
2022-12-23T12:28:23.967Z,99073.34
2022-12-23T12:30:58.049Z,99072.19
2022-12-23T12:33:34.857Z,99066.06
2022-12-23T12:36:13.779Z,99072.69
2022-12-23T12:38:44.631Z,99074.47
2022-12-23T12:41:18.928Z,99077.13
2022-12-23T12:43:52.513Z,99076.97
2022-12-23T12:46:30.380Z,99083.25
2022-12-23T12:49:05.315Z,99095.59
2022-12-23T12:51:39.544Z,99097.25
2022-12-23T12:54:16.071Z,99094.59
2022-12-23T12:56:49.975Z,99091.16
2022-12-23T12:59:21.357Z,99103.38
2022-12-23T13:02:07.610Z,99099.88
2022-12-23T13:05:18.618Z,99099.88
2022-12-23T13:07:58.057Z,99101.88
2022-12-23T13:10:36.938Z,99108.81
2022-12-23T13:13:15.554Z,99112.97
2022-12-23T13:15:51.359Z,99107.16
2022-12-23T13:18:34.635Z,99118.03
2022-12-23T13:21:09.861Z,99128.63
2022-12-23T13:23:47.476Z,99126.97
2022-12-23T13:26:25.558Z,99128.78
2022-12-23T13:29:05.913Z,99128.94
2022-12-23T13:31:48.015Z,99131.94
2022-12-23T13:34:30.644Z,99135.41
2022-12-23T13:37:09.360Z,99139.06
2022-12-23T13:39:48.278Z,99139.06
2022-12-23T13:42:25.684Z,99144.34
2022-12-23T13:44:55.328Z,99138.22
2022-12-23T13:47:29.925Z,99144.69
2022-12-23T13:50:05.619Z,99147.47
2022-12-23T13:52:51.937Z,99138.84
2022-12-23T13:55:32.188Z,99127.28
2022-12-23T13:58:04.913Z,99133.97
2022-12-23T14:00:35.219Z,99137.22
2022-12-23T14:03:19.869Z,99135.16
2022-12-23T14:05:50.932Z,99129.00
2022-12-23T14:08:42.342Z,99127.09
2022-12-23T14:11:17.567Z,99118.31
2022-12-23T14:13:55.377Z,99115.13
2022-12-23T14:16:48.021Z,99121.38
2022-12-23T14:19:40.826Z,99113.47
2022-12-23T14:22:26.922Z,99120.50
2022-12-23T14:25:18.074Z,99123.16
2022-12-23T14:27:58.278Z,99136.84
2022-12-23T14:30:36.132Z,99133.88
2022-12-23T14:33:06.534Z,99129.34
2022-12-23T14:35:57.148Z,99146.59
2022-12-23T14:38:33.323Z,99136.34
2022-12-23T14:41:25.513Z,99136.94
2022-12-23T14:43:59.632Z,99133.63
2022-12-23T14:46:58.734Z,99141.44
2022-12-23T14:49:48.067Z,99141.31
2022-12-23T14:52:44.325Z,99141.81
2022-12-23T14:55:45.108Z,99140.34
2022-12-23T14:58:48.680Z,99142.03
2022-12-23T15:01:20.599Z,99144.53
2022-12-23T15:03:55.959Z,99143.72
2022-12-23T15:06:35.030Z,99147.72
2022-12-23T15:09:04.560Z,99154.34
2022-12-23T15:11:36.108Z,99156.69
2022-12-23T15:14:09.174Z,99160.13
2022-12-23T15:16:45.239Z,99155.03
2022-12-23T15:19:24.514Z,99149.09
2022-12-23T15:22:15.313Z,99150.25
2022-12-23T15:24:49.548Z,99151.41
2022-12-23T15:27:28.941Z,99148.13
2022-12-23T15:29:59.053Z,99143.81
2022-12-23T15:32:30.584Z,99141.34
2022-12-23T15:35:05.299Z,99140.53
2022-12-23T15:37:37.030Z,99144.16
2022-12-23T15:40:12.714Z,99142.31
2022-12-23T15:42:48.938Z,99142.94
2022-12-23T15:45:32.847Z,99138.91
2022-12-23T15:48:03.364Z,99137.72
2022-12-23T15:50:32.587Z,99146.19
2022-12-23T15:53:07.631Z,99148.94
2022-12-23T15:55:38.238Z,99145.19
2022-12-23T15:58:07.073Z,99141.25
2022-12-23T16:00:41.135Z,99131.94
2022-12-23T16:03:27.645Z,99133.03
2022-12-23T16:05:56.354Z,99134.41
2022-12-23T16:08:30.155Z,99142.03
2022-12-23T16:11:07.252Z,99142.09
2022-12-23T16:13:37.412Z,99138.81
2022-12-23T16:16:32.669Z,99149.41
2022-12-23T16:19:02.879Z,99145.13
2022-12-23T16:21:34.452Z,99145.94
2022-12-23T16:24:06.274Z,99157.69
2022-12-23T16:26:41.797Z,99154.22
2022-12-23T16:29:11.812Z,99142.19
2022-12-23T16:31:45.692Z,99142.19
2022-12-23T16:34:21.233Z,99142.34
2022-12-23T16:36:49.804Z,99149.75
2022-12-23T16:39:21.826Z,99154.25
2022-12-23T16:41:50.695Z,99150.44
2022-12-23T16:44:19.278Z,99146.44
2022-12-23T16:46:51.134Z,99146.25
2022-12-23T16:49:27.929Z,99150.09
2022-12-23T16:51:59.866Z,99158.16
2022-12-23T16:54:28.291Z,99148.78
2022-12-23T16:56:56.845Z,99156.41
2022-12-23T16:59:26.480Z,99162.00
2022-12-23T17:01:59.670Z,99163.16
2022-12-23T17:04:33.205Z,99167.97
2022-12-23T17:07:01.763Z,99158.38
2022-12-23T17:09:30.234Z,99151.13
2022-12-23T17:11:58.671Z,99156.59
2022-12-23T17:14:27.520Z,99159.38
2022-12-23T17:16:58.707Z,99159.38
2022-12-23T17:19:28.495Z,99158.25
2022-12-23T17:22:02.750Z,99159.91
2022-12-23T17:24:32.017Z,99154.41
2022-12-23T17:27:00.819Z,99170.13
2022-12-23T17:29:29.589Z,99163.00
2022-12-23T17:31:58.255Z,99173.59
2022-12-23T17:34:26.800Z,99169.94
2022-12-23T17:36:55.381Z,99175.91
2022-12-23T17:39:25.476Z,99164.66
2022-12-23T17:41:54.054Z,99162.66
2022-12-23T17:44:22.656Z,99169.59
2022-12-23T17:46:51.131Z,99168.81
2022-12-23T17:49:19.714Z,99154.09
2022-12-23T17:51:48.261Z,99160.13
2022-12-23T17:54:23.363Z,99149.56
2022-12-23T17:56:53.576Z,99144.69
2022-12-23T17:59:22.187Z,99154.66
2022-12-23T18:01:50.891Z,99166.06
2022-12-23T18:04:19.579Z,99169.59
2022-12-23T18:06:48.071Z,99167.13
2022-12-23T18:09:17.028Z,99169.28
2022-12-23T18:11:48.006Z,99151.13
2022-12-23T18:14:21.377Z,99154.09
2022-12-23T18:16:49.923Z,99129.00
2022-12-23T18:19:22.129Z,99146.47
2022-12-23T18:21:51.657Z,99147.81
2022-12-23T18:24:20.543Z,99150.13
2022-12-23T18:26:49.227Z,99160.22
2022-12-23T18:29:19.454Z,99161.38
2022-12-23T18:31:52.073Z,99158.91
2022-12-23T18:34:21.555Z,99160.25
2022-12-23T18:36:52.050Z,99163.72
2022-12-23T18:39:21.156Z,99170.31
2022-12-23T18:41:50.150Z,99153.81
2022-12-23T18:44:22.526Z,99148.38
2022-12-23T18:46:51.305Z,99159.28
2022-12-23T18:49:20.077Z,99159.94
2022-12-23T18:51:48.622Z,99148.84
2022-12-23T18:54:17.635Z,99148.53
2022-12-23T18:56:47.004Z,99157.09
2022-12-23T18:59:21.363Z,99150.84
2022-12-23T19:01:54.484Z,99143.09
2022-12-23T19:04:22.895Z,99138.28
2022-12-23T19:06:51.651Z,99139.28
2022-12-23T19:09:21.940Z,99138.63
2022-12-23T19:11:52.770Z,99128.06
2022-12-23T19:14:21.451Z,99124.41
2022-12-23T19:16:52.378Z,99126.25
2022-12-23T19:19:23.038Z,99121.47
2022-12-23T19:21:51.560Z,99112.72
2022-12-23T19:24:20.041Z,99112.88
2022-12-23T19:26:48.698Z,99104.97
2022-12-23T19:29:17.147Z,99105.63
2022-12-23T19:31:45.609Z,99096.72
2022-12-23T19:34:15.681Z,99097.72
2022-12-23T19:36:46.076Z,99098.38
2022-12-23T19:39:16.982Z,99098.50
2022-12-23T19:41:46.053Z,99089.59
2022-12-23T19:44:14.635Z,99079.88
2022-12-23T19:46:43.501Z,99086.16
2022-12-23T19:49:19.140Z,99082.66
2022-12-23T19:51:49.937Z,99089.47
2022-12-23T19:54:19.039Z,99093.91
2022-12-23T19:56:47.720Z,99094.75
2022-12-23T19:59:16.218Z,99082.53
2022-12-23T20:01:45.078Z,99083.66
2022-12-23T20:04:14.875Z,99086.50
2022-12-23T20:06:43.630Z,99083.53
2022-12-23T20:09:14.777Z,99083.34
2022-12-23T20:11:44.885Z,99073.94
2022-12-23T20:14:15.320Z,99070.31
2022-12-23T20:16:50.077Z,99086.47
2022-12-23T20:19:25.642Z,99080.22
2022-12-23T20:22:00.703Z,99067.03
2022-12-23T20:24:33.454Z,99070.00
2022-12-23T20:27:11.931Z,99061.75
2022-12-23T20:29:41.954Z,99072.31
2022-12-23T20:32:10.370Z,99072.31
2022-12-23T20:34:40.265Z,99067.34
2022-12-23T20:37:09.188Z,99058.28
2022-12-23T20:39:39.060Z,99058.78
2022-12-23T20:42:07.643Z,99065.38
2022-12-23T20:44:37.485Z,99059.78
2022-12-23T20:47:06.598Z,99066.50
2022-12-23T20:49:35.298Z,99059.44
2022-12-23T20:52:03.875Z,99059.44
2022-12-23T20:54:33.863Z,99043.09
2022-12-23T20:57:04.406Z,99057.59
2022-12-23T20:59:33.363Z,99054.97
2022-12-23T21:02:02.806Z,99065.88
2022-12-23T21:04:31.584Z,99064.03
2022-12-23T21:07:00.060Z,99062.72
2022-12-23T21:09:28.512Z,99067.00
2022-12-23T21:11:57.163Z,99068.34
2022-12-23T21:14:27.183Z,99071.97
2022-12-23T21:16:56.058Z,99067.34
2022-12-23T21:19:26.179Z,99066.38
2022-12-23T21:21:55.027Z,99065.34
2022-12-23T21:24:23.502Z,99070.47
2022-12-23T21:26:56.357Z,99059.75
2022-12-23T21:29:27.629Z,99061.88
2022-12-23T21:31:56.541Z,99065.69
2022-12-23T21:34:25.220Z,99066.84
2022-12-23T21:36:53.770Z,99063.88
2022-12-23T21:39:22.347Z,99064.06
2022-12-23T21:41:51.691Z,99062.56
2022-12-23T21:44:20.121Z,99056.47
2022-12-23T21:46:51.431Z,99057.59
2022-12-23T21:49:21.472Z,99058.59
2022-12-23T21:51:50.154Z,99053.50
2022-12-23T21:54:18.659Z,99044.09
2022-12-23T21:56:47.175Z,99035.19
2022-12-23T21:59:16.685Z,99033.19
2022-12-23T22:01:45.508Z,99020.84
2022-12-23T22:04:15.499Z,99024.13
2022-12-23T22:06:45.345Z,99019.00
2022-12-23T22:09:16.887Z,99026.44
2022-12-23T22:11:46.146Z,99020.19
2022-12-23T22:14:17.439Z,99021.97
2022-12-23T22:16:46.194Z,99011.09
2022-12-23T22:19:16.207Z,99003.69
2022-12-23T22:21:44.680Z,99013.06
2022-12-23T22:24:13.233Z,99007.78
2022-12-23T22:26:42.257Z,99006.47
2022-12-23T22:29:12.779Z,98998.41
2022-12-23T22:31:45.745Z,99002.03
2022-12-23T22:34:17.736Z,98992.47
2022-12-23T22:36:46.560Z,99000.38
2022-12-23T22:39:20.805Z,98989.50
2022-12-23T22:41:50.160Z,98990.50
2022-12-23T22:44:19.073Z,98985.22
2022-12-23T22:46:47.818Z,98986.34
2022-12-23T22:49:18.346Z,98983.91
2022-12-23T22:51:47.084Z,98983.56
2022-12-23T22:54:15.875Z,98974.34
2022-12-23T22:56:44.507Z,98958.19
2022-12-23T22:59:20.789Z,98951.75
2022-12-23T23:01:50.537Z,98958.34
2022-12-23T23:04:20.554Z,98950.28
2022-12-23T23:06:49.459Z,98942.03
2022-12-23T23:09:20.372Z,98933.44
2022-12-23T23:11:49.379Z,98925.53
2022-12-23T23:14:18.953Z,98925.19
2022-12-23T23:16:47.592Z,98939.38
2022-12-23T23:19:19.036Z,98942.16
2022-12-23T23:21:49.425Z,98941.03
2022-12-23T23:24:18.171Z,98938.53
2022-12-23T23:26:46.641Z,98933.78
2022-12-23T23:29:15.100Z,98930.97
2022-12-23T23:31:44.440Z,98915.66
2022-12-23T23:34:16.512Z,98910.53
2022-12-23T23:36:45.021Z,98896.19
2022-12-23T23:39:15.492Z,98908.56
2022-12-23T23:41:44.186Z,98916.97
2022-12-23T23:44:13.819Z,98918.78
2022-12-23T23:46:42.283Z,98924.03
2022-12-23T23:49:11.227Z,98927.84
2022-12-23T23:51:40.192Z,98923.25
2022-12-23T23:54:08.982Z,98930.16
2022-12-23T23:56:39.607Z,98929.16
2022-12-23T23:59:09.308Z,98931.81
